Accueil
METAR-TAF:

METAR-TAF

Aéroports :

Aéroport de Milan-Linate

Milan, Italie

latitude: 45-26N, longitude: 009-17E, altitude: 107 m

Observation

Le bulletin a été fait il y a 44 minutes, à 20:20 UTC
Vent 1 kt de direction variable
Température 18°C
Humidité 73%
Pression 1015 hPa
Visibilité 10 km ou plus
pas de nuages en-dessous de 1500 mètres et pas de cumulonimbus.

METAR: LIML 312020Z VRB01KT CAVOK 18/13 Q1015 NOSIG

Heure: 23:04 (21:04 UTC)

Prévision

Le bulletin a été fait il y a 4 heures et 4 minutes, à 17:00 UTC
Prévision valable du 31 à 18 UTC au 01 à 18 UTC
Vent 6 kt de direction variable
Visibilité 10 km ou plus
Nuages épars à une hauteur de 6000 ft

TAF: LIML 311700Z 3118/0118 VRB06KT 9999 SCT060

Observations et prévisions météorologiques de plus de 4000 aéroports (messages METAR et TAF).

Les stations disponibles sont représentées par des disques jaunes et rouges sur la carte.

Passer la souris dessus pour voir le nom de la station.

Cliquer dessus pour voir les observations et prévisions météorologiques.

Pour changer de carte: cliquez sur les boutons verts avec une croix noire pour zoomer, sur le bouton vert avec un tiret pour effectuer un zoom arrière, ou sur les flèches vertes pour les cartes adjacentes.


METAR-TAF: